Ammon, Virginia
Current Conditions -  °F | °C
As of 4:35 AM on Monday 22 Dec 2014 (Local Time) from KPTB Reporting Station
Drizzle Drizzle  
Wind Chill: 33°   Ceiling: 4500
Heat Index: 38°   Visibility: 10mi
Dew Point: 32°   Wind: 7mph
Humidity: 78%   Direction: 40°NE
Pressure: 30.23"   Gusts: NA
Location:  37.16°N, 77.59°W
Report Text: KPTB 220935Z AUTO 04006KT 10SM -DZ BKN045 OVC060 04/00 A3023 RMK AO2 T00350000
Loading
Personal Weather Stations






























Interactive Weather Map New forecast layout! Learn more

10-Day Weather Forecast

Advertisements
Track Severe Weather on mobile